sensor_id;sensor_type;location;lat;lon;timestamp;temperature;humidity
46898;DHT22;32646;50.958;6.258;2023-10-19T00:12:19;11.20;99.90
46898;DHT22;32646;50.958;6.258;2023-10-19T00:18:20;11.20;99.90
46898;DHT22;32646;50.958;6.258;2023-10-19T00:24:27;11.20;99.90
46898;DHT22;32646;50.958;6.258;2023-10-19T00:26:58;11.20;99.90
46898;DHT22;32646;50.958;6.258;2023-10-19T00:29:58;11.20;99.90
46898;DHT22;32646;50.958;6.258;2023-10-19T00:32:54;11.20;99.90
46898;DHT22;32646;50.958;6.258;2023-10-19T00:35:45;11.20;99.90
46898;DHT22;32646;50.958;6.258;2023-10-19T00:38:44;11.30;99.90
46898;DHT22;32646;50.958;6.258;2023-10-19T00:42:08;11.30;99.90
46898;DHT22;32646;50.958;6.258;2023-10-19T00:55:11;11.20;99.90
46898;DHT22;32646;50.958;6.258;2023-10-19T00:57:55;11.20;99.90
46898;DHT22;32646;50.958;6.258;2023-10-19T01:01:00;11.20;99.90
46898;DHT22;32646;50.958;6.258;2023-10-19T01:03:48;11.20;99.90
46898;DHT22;32646;50.958;6.258;2023-10-19T01:06:31;11.30;99.90
46898;DHT22;32646;50.958;6.258;2023-10-19T01:09:03;11.40;99.90
46898;DHT22;32646;50.958;6.258;2023-10-19T01:15:33;11.80;99.90
46898;DHT22;32646;50.958;6.258;2023-10-19T01:18:10;12.30;99.90
46898;DHT22;32646;50.958;6.258;2023-10-19T01:20:45;12.90;99.90
46898;DHT22;32646;50.958;6.258;2023-10-19T01:23:31;13.30;99.90
46898;DHT22;32646;50.958;6.258;2023-10-19T01:26:23;13.70;99.90
46898;DHT22;32646;50.958;6.258;2023-10-19T01:32:07;13.90;99.90
46898;DHT22;32646;50.958;6.258;2023-10-19T01:34:57;13.90;99.90
46898;DHT22;32646;50.958;6.258;2023-10-19T01:40:38;14.00;99.90
46898;DHT22;32646;50.958;6.258;2023-10-19T01:47:04;14.10;99.90
46898;DHT22;32646;50.958;6.258;2023-10-19T01:49:33;14.10;99.90
46898;DHT22;32646;50.958;6.258;2023-10-19T01:52:14;14.20;99.90
46898;DHT22;32646;50.958;6.258;2023-10-19T01:54:55;14.20;99.90
46898;DHT22;32646;50.958;6.258;2023-10-19T01:57:38;14.20;99.90
46898;DHT22;32646;50.958;6.258;2023-10-19T02:00:14;14.10;99.90
46898;DHT22;32646;50.958;6.258;2023-10-19T02:03:01;14.30;99.90
46898;DHT22;32646;50.958;6.258;2023-10-19T02:05:57;14.30;99.90
46898;DHT22;32646;50.958;6.258;2023-10-19T02:08:40;14.20;99.90
46898;DHT22;32646;50.958;6.258;2023-10-19T02:14:11;14.20;99.90
46898;DHT22;32646;50.958;6.258;2023-10-19T02:16:38;14.20;99.90
46898;DHT22;32646;50.958;6.258;2023-10-19T02:19:10;14.20;99.90
46898;DHT22;32646;50.958;6.258;2023-10-19T02:21:37;14.20;99.90
46898;DHT22;32646;50.958;6.258;2023-10-19T02:24:04;14.30;99.90
46898;DHT22;32646;50.958;6.258;2023-10-19T02:26:31;14.30;99.90
46898;DHT22;32646;50.958;6.258;2023-10-19T02:28:58;14.30;99.90
46898;DHT22;32646;50.958;6.258;2023-10-19T02:31:24;14.30;99.90
46898;DHT22;32646;50.958;6.258;2023-10-19T02:33:53;14.20;99.90
46898;DHT22;32646;50.958;6.258;2023-10-19T02:36:20;14.20;99.90
46898;DHT22;32646;50.958;6.258;2023-10-19T02:38:47;14.20;99.90
46898;DHT22;32646;50.958;6.258;2023-10-19T02:41:17;14.10;99.90
46898;DHT22;32646;50.958;6.258;2023-10-19T02:43:44;14.10;99.90
46898;DHT22;32646;50.958;6.258;2023-10-19T02:46:12;14.00;99.90
46898;DHT22;32646;50.958;6.258;2023-10-19T02:48:39;13.90;99.90
46898;DHT22;32646;50.958;6.258;2023-10-19T02:51:06;13.90;99.90
46898;DHT22;32646;50.958;6.258;2023-10-19T02:53:33;13.90;99.90
46898;DHT22;32646;50.958;6.258;2023-10-19T02:55:59;13.90;99.90
46898;DHT22;32646;50.958;6.258;2023-10-19T02:58:35;13.90;99.90
46898;DHT22;32646;50.958;6.258;2023-10-19T03:01:01;14.00;99.90
46898;DHT22;32646;50.958;6.258;2023-10-19T03:03:28;14.00;99.90
46898;DHT22;32646;50.958;6.258;2023-10-19T03:05:55;14.00;99.90
46898;DHT22;32646;50.958;6.258;2023-10-19T03:08:21;14.10;99.90
46898;DHT22;32646;50.958;6.258;2023-10-19T03:10:48;14.00;99.90
46898;DHT22;32646;50.958;6.258;2023-10-19T03:13:15;14.10;99.90
46898;DHT22;32646;50.958;6.258;2023-10-19T03:15:44;14.00;99.90
46898;DHT22;32646;50.958;6.258;2023-10-19T03:18:13;14.00;99.90
46898;DHT22;32646;50.958;6.258;2023-10-19T03:20:40;14.00;99.90
46898;DHT22;32646;50.958;6.258;2023-10-19T03:23:06;14.00;99.90
46898;DHT22;32646;50.958;6.258;2023-10-19T03:25:33;14.00;99.90
46898;DHT22;32646;50.958;6.258;2023-10-19T03:28:00;14.00;99.90
46898;DHT22;32646;50.958;6.258;2023-10-19T03:30:26;14.00;99.90
46898;DHT22;32646;50.958;6.258;2023-10-19T03:32:53;14.00;99.90
46898;DHT22;32646;50.958;6.258;2023-10-19T03:35:19;14.00;99.90
46898;DHT22;32646;50.958;6.258;2023-10-19T03:37:46;14.00;99.90
46898;DHT22;32646;50.958;6.258;2023-10-19T03:40:13;14.00;99.90
46898;DHT22;32646;50.958;6.258;2023-10-19T03:42:39;14.00;99.90
46898;DHT22;32646;50.958;6.258;2023-10-19T03:45:09;13.80;99.90
46898;DHT22;32646;50.958;6.258;2023-10-19T03:47:36;13.80;99.90
46898;DHT22;32646;50.958;6.258;2023-10-19T03:50:03;13.80;99.90
46898;DHT22;32646;50.958;6.258;2023-10-19T03:52:30;13.70;99.90
46898;DHT22;32646;50.958;6.258;2023-10-19T03:55:04;13.60;99.90
46898;DHT22;32646;50.958;6.258;2023-10-19T03:57:36;13.60;99.90
46898;DHT22;32646;50.958;6.258;2023-10-19T04:00:08;13.50;99.90
46898;DHT22;32646;50.958;6.258;2023-10-19T04:02:43;13.50;99.90
46898;DHT22;32646;50.958;6.258;2023-10-19T04:05:17;13.70;99.90
46898;DHT22;32646;50.958;6.258;2023-10-19T04:07:52;13.80;99.90
46898;DHT22;32646;50.958;6.258;2023-10-19T04:10:19;13.90;99.90
46898;DHT22;32646;50.958;6.258;2023-10-19T04:12:46;13.80;99.90
46898;DHT22;32646;50.958;6.258;2023-10-19T04:15:13;13.90;99.90
46898;DHT22;32646;50.958;6.258;2023-10-19T04:17:40;13.80;99.90
46898;DHT22;32646;50.958;6.258;2023-10-19T04:20:07;13.90;99.90
46898;DHT22;32646;50.958;6.258;2023-10-19T04:22:33;13.90;99.90
46898;DHT22;32646;50.958;6.258;2023-10-19T04:25:00;14.00;99.90
46898;DHT22;32646;50.958;6.258;2023-10-19T04:27:27;14.00;99.90
46898;DHT22;32646;50.958;6.258;2023-10-19T04:29:53;14.00;99.90
46898;DHT22;32646;50.958;6.258;2023-10-19T04:32:23;13.90;99.90
46898;DHT22;32646;50.958;6.258;2023-10-19T04:34:49;13.80;99.90
46898;DHT22;32646;50.958;6.258;2023-10-19T04:37:16;13.80;99.90
46898;DHT22;32646;50.958;6.258;2023-10-19T04:39:43;13.70;99.90
46898;DHT22;32646;50.958;6.258;2023-10-19T04:42:09;13.60;99.90
46898;DHT22;32646;50.958;6.258;2023-10-19T04:44:36;13.50;99.90
46898;DHT22;32646;50.958;6.258;2023-10-19T04:47:03;13.50;99.90
46898;DHT22;32646;50.958;6.258;2023-10-19T04:49:29;13.30;99.90
46898;DHT22;32646;50.958;6.258;2023-10-19T04:51:56;13.30;99.90
46898;DHT22;32646;50.958;6.258;2023-10-19T04:54:23;13.30;99.90
46898;DHT22;32646;50.958;6.258;2023-10-19T04:56:49;13.50;99.90
46898;DHT22;32646;50.958;6.258;2023-10-19T04:59:16;13.60;99.90
46898;DHT22;32646;50.958;6.258;2023-10-19T05:01:42;13.60;99.90
46898;DHT22;32646;50.958;6.258;2023-10-19T05:04:09;13.60;99.90
46898;DHT22;32646;50.958;6.258;2023-10-19T05:06:36;13.70;99.90
46898;DHT22;32646;50.958;6.258;2023-10-19T05:09:02;13.70;99.90
46898;DHT22;32646;50.958;6.258;2023-10-19T05:11:29;13.70;99.90
46898;DHT22;32646;50.958;6.258;2023-10-19T05:13:56;13.70;99.90
46898;DHT22;32646;50.958;6.258;2023-10-19T05:16:22;13.70;99.90
46898;DHT22;32646;50.958;6.258;2023-10-19T05:18:49;13.60;99.90
46898;DHT22;32646;50.958;6.258;2023-10-19T05:21:16;13.70;99.90
46898;DHT22;32646;50.958;6.258;2023-10-19T05:23:42;13.60;99.90
46898;DHT22;32646;50.958;6.258;2023-10-19T05:26:09;13.50;99.90
46898;DHT22;32646;50.958;6.258;2023-10-19T05:28:35;13.40;99.90
46898;DHT22;32646;50.958;6.258;2023-10-19T05:31:02;13.40;99.90
46898;DHT22;32646;50.958;6.258;2023-10-19T05:33:29;13.40;99.90
46898;DHT22;32646;50.958;6.258;2023-10-19T05:35:56;13.40;99.90
46898;DHT22;32646;50.958;6.258;2023-10-19T05:38:23;13.40;99.90
46898;DHT22;32646;50.958;6.258;2023-10-19T05:40:50;13.30;99.90
46898;DHT22;32646;50.958;6.258;2023-10-19T05:43:16;13.30;99.90
46898;DHT22;32646;50.958;6.258;2023-10-19T05:45:43;13.30;99.90
46898;DHT22;32646;50.958;6.258;2023-10-19T05:48:10;13.20;99.90
46898;DHT22;32646;50.958;6.258;2023-10-19T05:50:36;13.20;99.90
46898;DHT22;32646;50.958;6.258;2023-10-19T05:53:04;13.20;99.90
46898;DHT22;32646;50.958;6.258;2023-10-19T05:55:30;13.10;99.90
46898;DHT22;32646;50.958;6.258;2023-10-19T05:57:57;13.10;99.90
46898;DHT22;32646;50.958;6.258;2023-10-19T06:00:24;13.00;99.90
46898;DHT22;32646;50.958;6.258;2023-10-19T06:02:50;13.00;99.90
46898;DHT22;32646;50.958;6.258;2023-10-19T06:05:18;12.90;99.90
46898;DHT22;32646;50.958;6.258;2023-10-19T06:07:46;12.90;99.90
46898;DHT22;32646;50.958;6.258;2023-10-19T06:10:16;12.80;99.90
46898;DHT22;32646;50.958;6.258;2023-10-19T06:12:43;12.70;99.90
46898;DHT22;32646;50.958;6.258;2023-10-19T06:15:11;12.70;99.90
46898;DHT22;32646;50.958;6.258;2023-10-19T06:17:39;12.70;99.90
46898;DHT22;32646;50.958;6.258;2023-10-19T06:20:11;12.70;99.90
46898;DHT22;32646;50.958;6.258;2023-10-19T06:22:38;12.60;99.90
46898;DHT22;32646;50.958;6.258;2023-10-19T06:25:05;12.60;99.90
46898;DHT22;32646;50.958;6.258;2023-10-19T06:27:32;12.60;99.90
46898;DHT22;32646;50.958;6.258;2023-10-19T06:29:58;12.60;99.90
46898;DHT22;32646;50.958;6.258;2023-10-19T06:32:25;12.60;99.90
46898;DHT22;32646;50.958;6.258;2023-10-19T06:34:54;12.60;99.90
46898;DHT22;32646;50.958;6.258;2023-10-19T06:37:21;12.60;99.90
46898;DHT22;32646;50.958;6.258;2023-10-19T06:39:51;12.60;99.90
46898;DHT22;32646;50.958;6.258;2023-10-19T06:42:17;12.70;99.90
46898;DHT22;32646;50.958;6.258;2023-10-19T06:44:44;12.70;99.90
46898;DHT22;32646;50.958;6.258;2023-10-19T06:47:11;12.70;99.90
46898;DHT22;32646;50.958;6.258;2023-10-19T06:49:37;12.80;99.90
46898;DHT22;32646;50.958;6.258;2023-10-19T06:52:04;12.80;99.90
46898;DHT22;32646;50.958;6.258;2023-10-19T06:54:31;12.90;99.90
46898;DHT22;32646;50.958;6.258;2023-10-19T06:56:59;13.00;99.90
46898;DHT22;32646;50.958;6.258;2023-10-19T06:59:25;13.00;99.90
46898;DHT22;32646;50.958;6.258;2023-10-19T07:01:52;13.00;99.90
46898;DHT22;32646;50.958;6.258;2023-10-19T07:04:18;13.00;99.90
46898;DHT22;32646;50.958;6.258;2023-10-19T07:06:45;13.10;99.90
46898;DHT22;32646;50.958;6.258;2023-10-19T07:09:12;13.10;99.90
46898;DHT22;32646;50.958;6.258;2023-10-19T07:11:38;13.10;99.90
46898;DHT22;32646;50.958;6.258;2023-10-19T07:14:05;13.20;99.90
46898;DHT22;32646;50.958;6.258;2023-10-19T07:16:31;13.30;99.90
46898;DHT22;32646;50.958;6.258;2023-10-19T07:18:58;13.30;99.90
46898;DHT22;32646;50.958;6.258;2023-10-19T07:21:25;13.40;99.90
46898;DHT22;32646;50.958;6.258;2023-10-19T07:23:51;13.50;99.90
46898;DHT22;32646;50.958;6.258;2023-10-19T07:26:20;13.70;99.90
46898;DHT22;32646;50.958;6.258;2023-10-19T07:28:47;13.70;99.90
46898;DHT22;32646;50.958;6.258;2023-10-19T07:31:13;13.90;99.90
46898;DHT22;32646;50.958;6.258;2023-10-19T07:33:40;14.20;99.90
46898;DHT22;32646;50.958;6.258;2023-10-19T07:36:12;14.40;99.90
46898;DHT22;32646;50.958;6.258;2023-10-19T07:38:42;14.50;99.90
46898;DHT22;32646;50.958;6.258;2023-10-19T07:41:09;14.60;99.90
46898;DHT22;32646;50.958;6.258;2023-10-19T07:43:43;14.60;99.90
46898;DHT22;32646;50.958;6.258;2023-10-19T07:46:09;14.70;99.90
46898;DHT22;32646;50.958;6.258;2023-10-19T07:48:49;14.70;99.90
46898;DHT22;32646;50.958;6.258;2023-10-19T07:51:29;14.70;99.90
46898;DHT22;32646;50.958;6.258;2023-10-19T07:54:45;14.90;99.90
46898;DHT22;32646;50.958;6.258;2023-10-19T08:00:55;15.10;99.90
46898;DHT22;32646;50.958;6.258;2023-10-19T08:03:42;15.20;99.90
46898;DHT22;32646;50.958;6.258;2023-10-19T08:06:12;15.20;99.90
46898;DHT22;32646;50.958;6.258;2023-10-19T08:08:46;15.30;99.90
46898;DHT22;32646;50.958;6.258;2023-10-19T08:11:28;15.40;99.90
46898;DHT22;32646;50.958;6.258;2023-10-19T08:14:00;15.60;99.90
46898;DHT22;32646;50.958;6.258;2023-10-19T08:16:43;15.90;99.90
46898;DHT22;32646;50.958;6.258;2023-10-19T08:19:16;16.70;99.90
46898;DHT22;32646;50.958;6.258;2023-10-19T08:21:50;17.70;99.90
46898;DHT22;32646;50.958;6.258;2023-10-19T08:24:28;18.90;99.90
46898;DHT22;32646;50.958;6.258;2023-10-19T08:27:15;20.00;99.90
46898;DHT22;32646;50.958;6.258;2023-10-19T08:30:00;20.80;99.90
46898;DHT22;32646;50.958;6.258;2023-10-19T08:32:43;21.50;99.90
46898;DHT22;32646;50.958;6.258;2023-10-19T08:35:43;21.90;97.20
46898;DHT22;32646;50.958;6.258;2023-10-19T08:38:32;22.40;96.00
46898;DHT22;32646;50.958;6.258;2023-10-19T08:41:22;22.60;89.90
46898;DHT22;32646;50.958;6.258;2023-10-19T08:43:49;22.40;89.90
46898;DHT22;32646;50.958;6.258;2023-10-19T08:46:16;22.20;91.10
46898;DHT22;32646;50.958;6.258;2023-10-19T08:49:02;22.20;86.30
46898;DHT22;32646;50.958;6.258;2023-10-19T08:51:31;21.90;90.60
46898;DHT22;32646;50.958;6.258;2023-10-19T08:54:03;22.10;90.30
46898;DHT22;32646;50.958;6.258;2023-10-19T08:56:34;20.90;90.60
46898;DHT22;32646;50.958;6.258;2023-10-19T08:59:18;20.20;91.90
46898;DHT22;32646;50.958;6.258;2023-10-19T09:01:51;20.40;97.60
46898;DHT22;32646;50.958;6.258;2023-10-19T09:04:21;21.10;95.00
46898;DHT22;32646;50.958;6.258;2023-10-19T09:06:48;21.70;93.90
46898;DHT22;32646;50.958;6.258;2023-10-19T09:09:14;22.00;93.60
46898;DHT22;32646;50.958;6.258;2023-10-19T09:11:42;22.30;86.50
46898;DHT22;32646;50.958;6.258;2023-10-19T09:14:08;22.30;90.10
46898;DHT22;32646;50.958;6.258;2023-10-19T09:16:35;22.50;90.20
46898;DHT22;32646;50.958;6.258;2023-10-19T09:19:02;22.60;78.90
46898;DHT22;32646;50.958;6.258;2023-10-19T09:21:28;22.90;86.80
46898;DHT22;32646;50.958;6.258;2023-10-19T09:23:56;22.60;81.80
46898;DHT22;32646;50.958;6.258;2023-10-19T09:26:24;22.60;88.20
46898;DHT22;32646;50.958;6.258;2023-10-19T09:28:51;22.00;79.90
46898;DHT22;32646;50.958;6.258;2023-10-19T09:31:19;21.30;88.50
46898;DHT22;32646;50.958;6.258;2023-10-19T09:33:46;20.80;90.00
46898;DHT22;32646;50.958;6.258;2023-10-19T09:36:13;20.70;93.60
46898;DHT22;32646;50.958;6.258;2023-10-19T09:38:47;20.20;94.30
46898;DHT22;32646;50.958;6.258;2023-10-19T09:41:15;19.50;97.20
46898;DHT22;32646;50.958;6.258;2023-10-19T09:43:45;19.10;99.80
46898;DHT22;32646;50.958;6.258;2023-10-19T09:46:15;18.90;99.90
46898;DHT22;32646;50.958;6.258;2023-10-19T09:48:47;18.60;99.90
46898;DHT22;32646;50.958;6.258;2023-10-19T09:51:16;18.50;99.90
46898;DHT22;32646;50.958;6.258;2023-10-19T09:54:20;18.50;99.90
46898;DHT22;32646;50.958;6.258;2023-10-19T09:56:55;18.50;99.90
46898;DHT22;32646;50.958;6.258;2023-10-19T09:59:37;18.50;99.90
46898;DHT22;32646;50.958;6.258;2023-10-19T10:02:07;19.10;99.90
46898;DHT22;32646;50.958;6.258;2023-10-19T10:04:34;19.30;99.90
46898;DHT22;32646;50.958;6.258;2023-10-19T10:07:01;19.50;99.90
46898;DHT22;32646;50.958;6.258;2023-10-19T10:09:29;20.30;99.90
46898;DHT22;32646;50.958;6.258;2023-10-19T10:11:55;21.20;94.00
46898;DHT22;32646;50.958;6.258;2023-10-19T10:14:24;21.00;94.10
46898;DHT22;32646;50.958;6.258;2023-10-19T10:17:01;21.20;91.10
46898;DHT22;32646;50.958;6.258;2023-10-19T10:19:28;21.60;90.70
46898;DHT22;32646;50.958;6.258;2023-10-19T10:22:08;21.70;93.20
46898;DHT22;32646;50.958;6.258;2023-10-19T10:24:42;21.00;91.20
46898;DHT22;32646;50.958;6.258;2023-10-19T10:27:09;20.20;92.60
46898;DHT22;32646;50.958;6.258;2023-10-19T10:29:36;19.60;97.00
46898;DHT22;32646;50.958;6.258;2023-10-19T10:32:02;19.10;98.00
46898;DHT22;32646;50.958;6.258;2023-10-19T10:39:32;18.80;99.90
46898;DHT22;32646;50.958;6.258;2023-10-19T10:42:00;18.70;99.90
46898;DHT22;32646;50.958;6.258;2023-10-19T10:44:40;18.60;99.90
46898;DHT22;32646;50.958;6.258;2023-10-19T10:47:20;18.80;99.90
46898;DHT22;32646;50.958;6.258;2023-10-19T10:52:32;18.70;99.90
46898;DHT22;32646;50.958;6.258;2023-10-19T10:55:10;18.70;99.90
46898;DHT22;32646;50.958;6.258;2023-10-19T10:57:38;18.80;99.90
46898;DHT22;32646;50.958;6.258;2023-10-19T11:00:10;19.20;99.90
46898;DHT22;32646;50.958;6.258;2023-10-19T11:02:37;20.40;99.90
46898;DHT22;32646;50.958;6.258;2023-10-19T11:05:04;21.00;99.90
46898;DHT22;32646;50.958;6.258;2023-10-19T11:07:31;21.00;99.90
46898;DHT22;32646;50.958;6.258;2023-10-19T11:09:58;20.40;99.60
46898;DHT22;32646;50.958;6.258;2023-10-19T11:12:24;19.80;99.90
46898;DHT22;32646;50.958;6.258;2023-10-19T11:14:52;19.40;99.90
46898;DHT22;32646;50.958;6.258;2023-10-19T11:17:19;19.20;99.90
46898;DHT22;32646;50.958;6.258;2023-10-19T11:19:46;18.90;99.90
46898;DHT22;32646;50.958;6.258;2023-10-19T11:22:12;18.70;99.90
46898;DHT22;32646;50.958;6.258;2023-10-19T11:24:39;18.40;99.90
46898;DHT22;32646;50.958;6.258;2023-10-19T11:27:06;18.20;99.90
46898;DHT22;32646;50.958;6.258;2023-10-19T11:29:33;18.20;99.90
46898;DHT22;32646;50.958;6.258;2023-10-19T11:32:00;18.20;99.90
46898;DHT22;32646;50.958;6.258;2023-10-19T11:34:27;18.20;99.90
46898;DHT22;32646;50.958;6.258;2023-10-19T11:36:56;18.10;99.90
46898;DHT22;32646;50.958;6.258;2023-10-19T11:39:23;18.00;99.90
46898;DHT22;32646;50.958;6.258;2023-10-19T11:41:49;18.00;99.90
46898;DHT22;32646;50.958;6.258;2023-10-19T11:44:16;18.00;99.90
46898;DHT22;32646;50.958;6.258;2023-10-19T11:46:43;18.00;99.90
46898;DHT22;32646;50.958;6.258;2023-10-19T11:49:09;18.00;99.90
46898;DHT22;32646;50.958;6.258;2023-10-19T11:51:36;18.10;99.90
46898;DHT22;32646;50.958;6.258;2023-10-19T11:54:04;18.10;99.90
46898;DHT22;32646;50.958;6.258;2023-10-19T11:56:31;18.10;99.90
46898;DHT22;32646;50.958;6.258;2023-10-19T11:58:58;18.20;99.90
46898;DHT22;32646;50.958;6.258;2023-10-19T12:01:25;18.20;99.90
46898;DHT22;32646;50.958;6.258;2023-10-19T12:03:53;18.20;99.90
46898;DHT22;32646;50.958;6.258;2023-10-19T12:06:19;18.10;99.90
46898;DHT22;32646;50.958;6.258;2023-10-19T12:08:46;18.10;99.90
46898;DHT22;32646;50.958;6.258;2023-10-19T12:11:13;18.10;99.90
46898;DHT22;32646;50.958;6.258;2023-10-19T12:13:40;18.10;99.90
46898;DHT22;32646;50.958;6.258;2023-10-19T12:16:07;18.00;99.90
46898;DHT22;32646;50.958;6.258;2023-10-19T12:18:33;18.00;99.90
46898;DHT22;32646;50.958;6.258;2023-10-19T12:21:00;17.90;99.90
46898;DHT22;32646;50.958;6.258;2023-10-19T12:23:26;17.80;99.90
46898;DHT22;32646;50.958;6.258;2023-10-19T12:25:53;17.80;99.90
46898;DHT22;32646;50.958;6.258;2023-10-19T12:28:23;17.80;99.90
46898;DHT22;32646;50.958;6.258;2023-10-19T12:30:50;17.70;99.90
46898;DHT22;32646;50.958;6.258;2023-10-19T12:33:17;17.70;99.90
46898;DHT22;32646;50.958;6.258;2023-10-19T12:35:43;17.70;99.90
46898;DHT22;32646;50.958;6.258;2023-10-19T12:38:11;17.70;99.90
46898;DHT22;32646;50.958;6.258;2023-10-19T12:40:38;17.70;99.90
46898;DHT22;32646;50.958;6.258;2023-10-19T12:43:05;17.60;99.90
46898;DHT22;32646;50.958;6.258;2023-10-19T12:45:31;17.60;99.90
46898;DHT22;32646;50.958;6.258;2023-10-19T12:47:58;17.50;99.90
46898;DHT22;32646;50.958;6.258;2023-10-19T12:50:24;17.50;99.90
46898;DHT22;32646;50.958;6.258;2023-10-19T12:52:51;17.50;99.90
46898;DHT22;32646;50.958;6.258;2023-10-19T12:55:18;17.40;99.90
46898;DHT22;32646;50.958;6.258;2023-10-19T12:57:45;17.40;99.90
46898;DHT22;32646;50.958;6.258;2023-10-19T13:00:12;17.30;99.90
46898;DHT22;32646;50.958;6.258;2023-10-19T13:02:39;17.20;99.90
46898;DHT22;32646;50.958;6.258;2023-10-19T13:05:05;17.00;99.90
46898;DHT22;32646;50.958;6.258;2023-10-19T13:07:32;16.80;99.90
46898;DHT22;32646;50.958;6.258;2023-10-19T13:09:59;16.70;99.90
46898;DHT22;32646;50.958;6.258;2023-10-19T13:12:25;16.60;99.90
46898;DHT22;32646;50.958;6.258;2023-10-19T13:14:52;16.40;99.90
46898;DHT22;32646;50.958;6.258;2023-10-19T13:17:18;16.30;99.90
46898;DHT22;32646;50.958;6.258;2023-10-19T13:19:54;16.20;99.90
46898;DHT22;32646;50.958;6.258;2023-10-19T13:22:25;16.10;99.90
46898;DHT22;32646;50.958;6.258;2023-10-19T15:20:49;16.40;99.90
46898;DHT22;32646;50.958;6.258;2023-10-19T15:23:16;16.30;99.90
46898;DHT22;32646;50.958;6.258;2023-10-19T15:25:43;16.30;99.90
46898;DHT22;32646;50.958;6.258;2023-10-19T15:28:10;16.20;99.90
46898;DHT22;32646;50.958;6.258;2023-10-19T15:30:37;16.10;99.90
46898;DHT22;32646;50.958;6.258;2023-10-19T15:33:03;16.10;99.90
46898;DHT22;32646;50.958;6.258;2023-10-19T15:35:30;16.00;99.90
46898;DHT22;32646;50.958;6.258;2023-10-19T15:37:57;16.00;99.90
46898;DHT22;32646;50.958;6.258;2023-10-19T15:40:24;15.90;99.90
46898;DHT22;32646;50.958;6.258;2023-10-19T15:42:52;15.90;99.90
46898;DHT22;32646;50.958;6.258;2023-10-19T15:45:19;15.80;99.90
46898;DHT22;32646;50.958;6.258;2023-10-19T15:47:46;15.80;99.90
46898;DHT22;32646;50.958;6.258;2023-10-19T15:50:14;15.70;99.90
46898;DHT22;32646;50.958;6.258;2023-10-19T15:52:41;15.70;99.90
46898;DHT22;32646;50.958;6.258;2023-10-19T15:55:09;15.70;99.90
46898;DHT22;32646;50.958;6.258;2023-10-19T15:57:39;15.60;99.90
46898;DHT22;32646;50.958;6.258;2023-10-19T16:00:08;15.60;99.90
46898;DHT22;32646;50.958;6.258;2023-10-19T16:02:36;15.50;99.90
46898;DHT22;32646;50.958;6.258;2023-10-19T16:05:02;15.50;99.90
46898;DHT22;32646;50.958;6.258;2023-10-19T16:07:29;15.50;99.90
46898;DHT22;32646;50.958;6.258;2023-10-19T16:09:56;15.50;99.90
46898;DHT22;32646;50.958;6.258;2023-10-19T16:12:22;15.40;99.90
46898;DHT22;32646;50.958;6.258;2023-10-19T16:14:49;15.40;99.90
46898;DHT22;32646;50.958;6.258;2023-10-19T16:17:16;15.30;99.90
46898;DHT22;32646;50.958;6.258;2023-10-19T16:19:43;15.30;99.90
46898;DHT22;32646;50.958;6.258;2023-10-19T16:22:09;15.30;99.90
46898;DHT22;32646;50.958;6.258;2023-10-19T16:24:36;15.20;99.90
46898;DHT22;32646;50.958;6.258;2023-10-19T16:27:02;15.20;99.90
46898;DHT22;32646;50.958;6.258;2023-10-19T16:29:29;15.20;99.90
46898;DHT22;32646;50.958;6.258;2023-10-19T16:31:56;15.20;99.90
46898;DHT22;32646;50.958;6.258;2023-10-19T16:34:23;15.10;99.90
46898;DHT22;32646;50.958;6.258;2023-10-19T16:36:49;15.10;99.90
46898;DHT22;32646;50.958;6.258;2023-10-19T16:39:16;15.20;99.90
46898;DHT22;32646;50.958;6.258;2023-10-19T16:41:44;15.20;99.90
46898;DHT22;32646;50.958;6.258;2023-10-19T16:44:11;15.10;99.90
46898;DHT22;32646;50.958;6.258;2023-10-19T16:46:38;15.10;99.90
46898;DHT22;32646;50.958;6.258;2023-10-19T16:49:05;15.10;99.90
46898;DHT22;32646;50.958;6.258;2023-10-19T16:51:33;15.10;99.90
46898;DHT22;32646;50.958;6.258;2023-10-19T16:54:00;15.00;99.90
46898;DHT22;32646;50.958;6.258;2023-10-19T16:56:26;15.00;99.90
46898;DHT22;32646;50.958;6.258;2023-10-19T16:58:53;14.90;99.90
46898;DHT22;32646;50.958;6.258;2023-10-19T17:01:20;14.90;99.90
46898;DHT22;32646;50.958;6.258;2023-10-19T17:03:46;14.90;99.90
46898;DHT22;32646;50.958;6.258;2023-10-19T17:06:13;15.00;99.90
46898;DHT22;32646;50.958;6.258;2023-10-19T17:08:40;14.90;99.90
46898;DHT22;32646;50.958;6.258;2023-10-19T17:11:07;14.90;99.90
46898;DHT22;32646;50.958;6.258;2023-10-19T17:13:34;14.90;99.90
46898;DHT22;32646;50.958;6.258;2023-10-19T17:16:01;14.90;99.90
46898;DHT22;32646;50.958;6.258;2023-10-19T17:18:29;14.90;99.90
46898;DHT22;32646;50.958;6.258;2023-10-19T17:20:56;14.90;99.90
46898;DHT22;32646;50.958;6.258;2023-10-19T17:23:23;14.90;99.90
46898;DHT22;32646;50.958;6.258;2023-10-19T17:25:50;14.90;99.90
